Pagrindinis puslapis
METAR-TAF:

METAR-TAF

Oro uostai :

Tahua, Nigeris

platuma: 14-54N, ilguma: 005-15E, Aukštis: 386 m

Dabartinis oras

Ataskaita buvo paskelbta 1 valandą ir 7 minutes, ne 04:00 UTC
Vėjas 4 kt iš Šiaurės Rytų
Temperatūra 17°C
Drėgmė 9%
Slėgis 1016 hPa
Matomumas: 4600 m
dulkės

METAR: DRRT 280400Z 04004KT 4600 DU NSC 17/M16 Q1016

Laikas: 06:07 (05:07 UTC)


TAF: trūkstamas

Orai ataskaitas ir orų prognozės (METAR, TAF).

turimą stotys yra geltonos ir raudonos taškus žemėlapyje.

Perkelti pele per norėdami pamatyti stoties vardą.

Tada spustelėkite, norėdami matyti oro stebėjimo ir prognozės.

Norėdami pakeisti žemėlapį: spustelėkite ant žalios mygtukų su juodo kryžiaus žemyn,; žalią mygtuką su brūkšneliu, jei norite nutolinti; arba žalių rodyklių gretimoms žemėlapius.


METAR-TAF: